Time;durP1;ratioP1;P1;durP2;ratioP2;P2;SDS_P1;SDS_P2;PMS_P1;PMS_P2;Temp;Humidity;BMP_temperature;BMP_pressure;BME280_temperature;BME280_humidity;BME280_pressure;Samples;Min_cycle;Max_cycle;Signal;HPM_P1;HPM_P2
2022/10/01 00:01:54;;;;;;;14.30;12.97;;;7.10;99.90;;;;;;6232426;23;21145;-94
2022/10/01 00:04:21;;;;;;;14.03;12.80;;;7.60;99.90;;;;;;6222225;23;20583;-94
2022/10/01 00:06:48;;;;;;;14.13;12.93;;;7.60;99.90;;;;;;6223479;23;20563;-95
2022/10/01 00:09:28;;;;;;;15.63;14.23;;;7.60;99.90;;;;;;6221160;23;20719;-94
2022/10/01 00:11:58;;;;;;;15.00;13.77;;;7.60;99.90;;;;;;6220686;23;20628;-94
2022/10/01 00:14:28;;;;;;;14.93;13.43;;;7.50;99.90;;;;;;6219730;23;20602;-95
2022/10/01 00:16:55;;;;;;;13.10;12.00;;;7.60;99.90;;;;;;6219862;23;20892;-94
2022/10/01 00:19:22;;;;;;;14.13;12.73;;;7.60;99.90;;;;;;6220119;23;20639;-94
2022/10/01 00:21:50;;;;;;;13.57;12.47;;;7.10;99.90;;;;;;6221225;23;20626;-94
2022/10/01 00:24:17;;;;;;;12.40;11.40;;;7.60;99.90;;;;;;6226107;23;20585;-94
2022/10/01 00:26:46;;;;;;;13.43;12.27;;;7.60;99.90;;;;;;6219386;23;20578;-94
2022/10/01 00:29:15;;;;;;;13.80;11.60;;;7.60;99.90;;;;;;6217807;23;21063;-93
2022/10/01 00:31:43;;;;;;;12.13;11.03;;;7.60;99.90;;;;;;6216578;23;20640;-95
2022/10/01 00:34:13;;;;;;;12.73;11.73;;;7.60;99.90;;;;;;6216406;23;20582;-94
2022/10/01 00:36:41;;;;;;;15.57;12.87;;;7.70;99.90;;;;;;6217664;23;21095;-94
2022/10/01 00:39:09;;;;;;;12.10;10.90;;;7.30;99.90;;;;;;6216807;23;20628;-94
2022/10/01 00:41:37;;;;;;;12.63;11.43;;;7.80;99.90;;;;;;6216893;23;20594;-93
2022/10/01 00:44:28;;;;;;;12.17;11.03;;;7.80;99.90;;;;;;6218491;23;21418;-94
2022/10/01 00:47:02;;;;;;;13.27;12.07;;;7.80;99.90;;;;;;6219162;23;20604;-93
2022/10/01 00:49:33;;;;;;;12.60;11.47;;;7.80;99.90;;;;;;6219040;23;20622;-95
2022/10/01 00:52:09;;;;;;;11.33;10.43;;;7.80;99.90;;;;;;6222950;23;21176;-94
2022/10/01 00:54:42;;;;;;;11.83;10.83;;;7.80;99.90;;;;;;6222935;23;20609;-94
2022/10/01 00:57:13;;;;;;;10.90;10.00;;;7.80;99.90;;;;;;6219902;23;20665;-94
2022/10/01 00:59:40;;;;;;;11.73;10.70;;;7.70;99.90;;;;;;6219369;23;20637;-94
2022/10/01 01:02:10;;;;;;;10.87;10.07;;;7.70;99.90;;;;;;6220163;23;20652;-94
2022/10/01 01:04:38;;;;;;;10.07;9.27;;;7.70;99.90;;;;;;6221279;23;20622;-94
2022/10/01 01:07:06;;;;;;;10.50;9.70;;;7.70;99.90;;;;;;6221106;23;20665;-95
2022/10/01 01:09:36;;;;;;;10.43;9.63;;;7.70;99.90;;;;;;6224526;23;20641;-93
2022/10/01 01:12:10;;;;;;;9.67;8.97;;;7.60;99.90;;;;;;6222046;23;20582;-94
2022/10/01 01:14:49;;;;;;;11.47;10.57;;;7.60;99.90;;;;;;6224274;23;20601;-94
2022/10/01 01:17:23;;;;;;;11.63;10.53;;;7.70;99.90;;;;;;6224464;23;20680;-94
2022/10/01 01:20:11;;;;;;;11.50;10.70;;;7.70;99.90;;;;;;6224485;23;20637;-94
2022/10/01 01:22:48;;;;;;;12.60;11.63;;;7.70;99.90;;;;;;6225877;23;20614;-94
2022/10/01 01:25:19;;;;;;;12.53;11.40;;;7.70;99.90;;;;;;6242549;23;20621;-94
2022/10/01 01:27:57;;;;;;;11.33;10.33;;;7.80;99.90;;;;;;6239341;23;20524;-95
2022/10/01 01:30:25;;;;;;;12.10;10.67;;;7.80;99.90;;;;;;6238984;23;20626;-93
2022/10/01 01:33:02;;;;;;;10.87;10.07;;;7.80;99.90;;;;;;6224210;23;20662;-95
2022/10/01 01:35:32;;;;;;;10.77;9.80;;;7.70;99.90;;;;;;6223408;23;20584;-95
2022/10/01 01:38:03;;;;;;;10.43;9.57;;;7.70;99.90;;;;;;6238992;23;20583;-95
2022/10/01 01:40:33;;;;;;;10.50;9.80;;;7.70;99.90;;;;;;6235608;23;20599;-94
2022/10/01 01:43:05;;;;;;;9.70;9.00;;;7.80;99.90;;;;;;6228636;23;20621;-94
2022/10/01 01:45:34;;;;;;;9.60;8.90;;;7.70;99.90;;;;;;6232204;23;20569;-95
2022/10/01 01:48:04;;;;;;;11.20;9.30;;;7.60;99.90;;;;;;6243462;23;20554;-95
2022/10/01 01:50:37;;;;;;;9.10;8.50;;;7.50;99.90;;;;;;6242814;23;20607;-93
2022/10/01 01:53:05;;;;;;;10.20;9.30;;;7.20;99.90;;;;;;6245004;23;20590;-94
2022/10/01 01:55:32;;;;;;;10.70;9.83;;;7.60;99.90;;;;;;6243139;23;20567;-94
2022/10/01 01:58:04;;;;;;;10.70;9.90;;;7.70;99.90;;;;;;6242189;23;20601;-95
2022/10/01 02:00:31;;;;;;;9.53;8.83;;;7.70;99.90;;;;;;6240865;23;20629;-95
2022/10/01 02:02:58;;;;;;;9.60;8.90;;;7.70;99.90;;;;;;6223076;23;20676;-94
2022/10/01 02:05:30;;;;;;;9.20;8.50;;;7.70;99.90;;;;;;6221637;23;20609;-95
2022/10/01 02:08:26;;;;;;;8.87;8.17;;;7.60;99.90;;;;;;6221497;23;20616;-94
2022/10/01 02:11:11;;;;;;;11.53;10.50;;;7.60;99.90;;;;;;6227575;23;20618;-96
2022/10/01 02:14:00;;;;;;;10.60;9.80;;;7.60;99.90;;;;;;6222088;23;20683;-94
2022/10/01 02:16:35;;;;;;;12.00;11.00;;;7.60;99.90;;;;;;6225569;23;20584;-95
2022/10/01 02:19:11;;;;;;;10.93;10.13;;;7.50;99.90;;;;;;6196891;23;20610;-95
2022/10/01 02:21:42;;;;;;;11.27;10.20;;;7.50;99.90;;;;;;6222858;23;20602;-96
2022/10/01 02:24:18;;;;;;;10.30;9.50;;;7.60;99.90;;;;;;6221792;23;20637;-95
2022/10/01 02:26:48;;;;;;;10.97;9.90;;;7.60;99.90;;;;;;6222929;23;20578;-96
2022/10/01 02:29:21;;;;;;;12.73;11.80;;;7.30;99.90;;;;;;6220570;23;20985;-95
2022/10/01 02:31:52;;;;;;;13.07;12.17;;;7.50;99.90;;;;;;6220101;23;20598;-95
2022/10/01 02:34:22;;;;;;;12.37;11.40;;;7.60;99.90;;;;;;6224998;23;21074;-95
2022/10/01 02:36:50;;;;;;;13.37;12.27;;;7.60;99.90;;;;;;6223549;23;20559;-95
2022/10/01 02:39:18;;;;;;;13.33;12.43;;;7.60;99.90;;;;;;6193984;23;20696;-96
2022/10/01 02:41:50;;;;;;;13.37;12.43;;;7.70;99.90;;;;;;6221452;23;20589;-95
2022/10/01 02:44:24;;;;;;;13.20;12.20;;;7.70;99.90;;;;;;6223327;23;20705;-95
2022/10/01 02:46:57;;;;;;;12.73;11.70;;;7.70;99.90;;;;;;6221971;23;20581;-94
2022/10/01 02:49:26;;;;;;;11.90;10.97;;;7.70;99.90;;;;;;6220235;23;20708;-94
2022/10/01 02:51:59;;;;;;;12.03;10.93;;;7.70;99.90;;;;;;6220439;23;20613;-95
2022/10/01 02:54:30;;;;;;;10.73;9.93;;;7.80;99.90;;;;;;6221974;23;20578;-94
2022/10/01 02:59:47;;;;;;;12.37;11.40;;;7.70;99.90;;;;;;6222336;23;20668;-96
2022/10/01 03:02:21;;;;;;;11.43;10.63;;;7.70;99.90;;;;;;6230599;23;20687;-96
2022/10/01 03:04:54;;;;;;;12.13;11.03;;;7.70;99.90;;;;;;6222370;23;20598;-96
2022/10/01 03:07:21;;;;;;;12.00;11.10;;;7.70;99.90;;;;;;6221143;23;21148;-95
2022/10/01 03:09:50;;;;;;;12.50;11.50;;;7.80;99.90;;;;;;6220701;23;20602;-95
2022/10/01 03:12:18;;;;;;;11.70;10.80;;;7.80;99.90;;;;;;6221921;23;20657;-95
2022/10/01 03:14:52;;;;;;;11.53;10.43;;;7.80;99.90;;;;;;6222542;23;20589;-94
2022/10/01 03:17:20;;;;;;;12.77;11.77;;;7.80;99.90;;;;;;6224782;23;20584;-95
2022/10/01 03:19:48;;;;;;;11.10;10.30;;;7.50;99.90;;;;;;6229760;23;20627;-96
2022/10/01 03:22:21;;;;;;;10.70;9.90;;;7.80;99.90;;;;;;6230349;23;20605;-95
2022/10/01 03:24:49;;;;;;;10.50;9.60;;;7.60;99.90;;;;;;6228399;23;20577;-95
2022/10/01 03:27:17;;;;;;;11.83;10.93;;;7.90;99.90;;;;;;6229968;23;20603;-96
2022/10/01 03:29:44;;;;;;;11.00;10.07;;;7.80;99.90;;;;;;6230399;23;20633;-96
2022/10/01 03:32:13;;;;;;;11.73;10.93;;;7.80;99.90;;;;;;6244639;23;20608;-95
2022/10/01 03:34:44;;;;;;;10.37;9.60;;;7.80;99.90;;;;;;6244586;23;20578;-96
2022/10/01 03:37:11;;;;;;;11.33;10.43;;;7.80;99.90;;;;;;6244727;23;20570;-95
2022/10/01 03:39:39;;;;;;;12.60;11.30;;;7.80;99.90;;;;;;6244290;23;20610;-96
2022/10/01 03:42:09;;;;;;;10.53;9.63;;;7.90;99.90;;;;;;6218524;23;20590;-95
2022/10/01 03:44:36;;;;;;;10.13;9.30;;;7.90;99.90;;;;;;6244048;23;20625;-96
2022/10/01 03:47:04;;;;;;;10.97;10.17;;;7.80;99.90;;;;;;6244325;23;20583;-95
2022/10/01 03:49:34;;;;;;;12.40;11.40;;;7.40;99.90;;;;;;6241495;23;20609;-96
2022/10/01 03:52:02;;;;;;;14.07;12.70;;;7.50;99.90;;;;;;6240991;23;20575;-94
2022/10/01 03:54:32;;;;;;;14.03;13.07;;;7.40;99.90;;;;;;6243805;23;20593;-95
2022/10/01 03:56:59;;;;;;;14.30;13.20;;;7.50;99.90;;;;;;6243379;23;20612;-94
2022/10/01 03:59:27;;;;;;;13.93;12.73;;;7.60;99.90;;;;;;6237631;23;20640;-95
2022/10/01 04:01:54;;;;;;;14.63;13.27;;;7.60;99.90;;;;;;6231232;23;20591;-95
2022/10/01 04:04:24;;;;;;;14.47;13.13;;;7.60;99.90;;;;;;6230986;23;20637;-95
2022/10/01 04:06:54;;;;;;;13.33;12.20;;;7.60;99.90;;;;;;6209829;23;20610;-94
2022/10/01 04:09:21;;;;;;;14.73;13.43;;;7.60;99.90;;;;;;6240872;23;20610;-95
2022/10/01 04:11:51;;;;;;;12.00;11.10;;;7.60;99.90;;;;;;6233527;23;20578;-95
2022/10/01 04:14:18;;;;;;;14.70;13.40;;;7.60;99.90;;;;;;6230288;23;20606;-95
2022/10/01 04:16:45;;;;;;;15.53;13.80;;;7.70;99.90;;;;;;6230114;23;20594;-95
2022/10/01 04:19:13;;;;;;;14.07;12.97;;;7.70;99.90;;;;;;6229548;23;20651;-96
2022/10/01 04:21:41;;;;;;;14.20;13.00;;;7.70;99.90;;;;;;6233598;23;20686;-95
2022/10/01 04:24:48;;;;;;;13.50;12.30;;;7.70;99.90;;;;;;6235252;23;20622;-95
2022/10/01 04:27:16;;;;;;;13.80;12.50;;;7.60;99.90;;;;;;6243871;23;20557;-96
2022/10/01 04:29:43;;;;;;;13.87;12.63;;;7.60;99.90;;;;;;6243547;23;20601;-96
2022/10/01 04:32:10;;;;;;;12.33;11.37;;;7.60;99.90;;;;;;6242431;23;20597;-95
2022/10/01 04:37:21;;;;;;;12.67;11.57;;;7.50;99.90;;;;;;6233802;23;20579;-94
2022/10/01 04:39:50;;;;;;;13.00;11.90;;;7.50;99.90;;;;;;6230714;23;20641;-94
2022/10/01 04:42:18;;;;;;;12.80;11.80;;;7.50;99.90;;;;;;6229518;23;20766;-95
2022/10/01 04:44:45;;;;;;;11.57;10.57;;;7.50;99.90;;;;;;6221455;23;21185;-95
2022/10/01 04:47:12;;;;;;;12.30;11.40;;;7.50;99.90;;;;;;6219749;23;20633;-96
2022/10/01 04:49:40;;;;;;;12.47;11.27;;;7.50;99.90;;;;;;6218759;23;20617;-96
2022/10/01 04:52:08;;;;;;;12.03;11.03;;;7.50;99.90;;;;;;6220729;23;20606;-96
2022/10/01 04:54:35;;;;;;;10.80;10.00;;;7.60;99.90;;;;;;6220409;23;20581;-95
2022/10/01 04:57:04;;;;;;;10.40;9.50;;;7.60;99.90;;;;;;6220888;23;20606;-95
2022/10/01 04:59:39;;;;;;;10.13;9.27;;;7.60;99.90;;;;;;6222082;23;20658;-96
2022/10/01 05:02:08;;;;;;;10.20;9.20;;;7.60;99.90;;;;;;6225886;23;20594;-96
2022/10/01 05:04:38;;;;;;;10.07;9.17;;;7.60;99.90;;;;;;6235861;23;20654;-95
2022/10/01 05:07:05;;;;;;;10.53;9.73;;;7.60;99.90;;;;;;6240617;23;20593;-95
2022/10/01 05:09:44;;;;;;;8.80;8.10;;;7.60;99.90;;;;;;6241035;23;20621;-93
2022/10/01 05:15:30;;;;;;;8.20;7.60;;;7.70;99.90;;;;;;6231211;23;20617;-96
2022/10/01 05:17:57;;;;;;;8.30;7.50;;;7.70;99.90;;;;;;6225966;23;20586;-95
2022/10/01 05:23:13;;;;;;;8.00;7.30;;;7.90;99.90;;;;;;6235366;23;20661;-96
2022/10/01 05:25:40;;;;;;;7.90;7.30;;;7.90;99.90;;;;;;6237404;23;20594;-95
2022/10/01 05:28:12;;;;;;;7.67;6.97;;;8.00;99.90;;;;;;6237090;23;20593;-96
2022/10/01 05:30:45;;;;;;;7.90;7.30;;;8.10;99.90;;;;;;6224897;23;20629;-96
2022/10/01 05:33:13;;;;;;;6.93;6.43;;;8.10;99.90;;;;;;6231616;23;20604;-96
2022/10/01 05:35:41;;;;;;;7.00;6.50;;;8.20;99.90;;;;;;6239594;23;20578;-95
2022/10/01 05:38:08;;;;;;;8.27;7.67;;;8.00;99.90;;;;;;6242172;23;20585;-94
2022/10/01 05:40:36;;;;;;;9.40;7.70;;;8.30;99.90;;;;;;6243514;23;21041;-95
2022/10/01 05:43:03;;;;;;;11.33;10.03;;;8.30;99.90;;;;;;6242977;23;20594;-94
2022/10/01 05:45:39;;;;;;;17.73;16.10;;;8.40;99.90;;;;;;6244146;23;20589;-96
2022/10/01 05:48:08;;;;;;;34.60;30.93;;;8.40;99.90;;;;;;6216965;23;20669;-96
2022/10/01 05:50:39;;;;;;;12.83;11.63;;;8.40;99.90;;;;;;6229132;22;20631;-95
2022/10/01 05:53:10;;;;;;;15.07;13.67;;;8.40;99.90;;;;;;6209178;23;20630;-96
2022/10/01 05:55:38;;;;;;;22.63;20.37;;;8.40;99.90;;;;;;6210316;23;20642;-96
2022/10/01 05:58:08;;;;;;;20.53;18.53;;;8.50;99.90;;;;;;6210602;23;20571;-96
2022/10/01 06:00:40;;;;;;;22.67;20.40;;;8.50;99.90;;;;;;6208093;23;20699;-96
2022/10/01 06:03:08;;;;;;;19.63;17.77;;;8.60;99.90;;;;;;6211992;23;20563;-95
2022/10/01 06:05:37;;;;;;;17.83;16.03;;;8.60;99.90;;;;;;6211958;23;20583;-96
2022/10/01 06:08:06;;;;;;;9.50;8.77;;;8.70;99.90;;;;;;6210361;23;20583;-96
2022/10/01 06:10:35;;;;;;;11.13;10.23;;;8.70;99.90;;;;;;6208334;23;20606;-95
2022/10/01 06:13:04;;;;;;;10.87;9.97;;;8.70;99.90;;;;;;6209171;23;20662;-96
2022/10/01 06:15:36;;;;;;;9.77;8.90;;;8.80;99.90;;;;;;6209554;23;20556;-96
2022/10/01 06:18:14;;;;;;;8.87;7.80;;;8.70;99.90;;;;;;6210161;23;20583;-96
2022/10/01 06:20:44;;;;;;;7.17;6.47;;;8.80;99.90;;;;;;6211682;23;20630;-96
2022/10/01 06:23:13;;;;;;;10.43;9.43;;;8.80;99.90;;;;;;6210572;23;20578;-96
2022/10/01 06:25:42;;;;;;;10.40;9.40;;;8.90;99.90;;;;;;6210741;23;20573;-95
2022/10/01 06:28:13;;;;;;;8.67;7.77;;;8.90;99.90;;;;;;6210652;23;20631;-95
2022/10/01 06:30:41;;;;;;;10.57;9.57;;;8.90;99.90;;;;;;6211640;23;20645;-96
2022/10/01 06:33:13;;;;;;;12.73;11.63;;;8.90;99.90;;;;;;6212253;23;20560;-96
2022/10/01 06:35:42;;;;;;;14.17;12.90;;;8.90;99.90;;;;;;6210507;23;20606;-95
2022/10/01 06:38:10;;;;;;;13.10;12.10;;;9.00;99.90;;;;;;6211700;23;20564;-96
2022/10/01 06:40:38;;;;;;;12.10;11.20;;;9.00;99.90;;;;;;6211396;23;20596;-95
2022/10/01 06:43:08;;;;;;;10.67;9.40;;;9.10;99.90;;;;;;6210912;23;20588;-96
2022/10/01 06:45:38;;;;;;;10.63;9.83;;;9.10;99.90;;;;;;6210821;23;20627;-95
2022/10/01 06:48:06;;;;;;;17.23;15.87;;;9.10;99.90;;;;;;6207582;23;20694;-94
2022/10/01 06:50:46;;;;;;;17.67;16.30;;;9.00;99.90;;;;;;6210069;23;21327;-94
2022/10/01 06:53:22;;;;;;;12.17;11.30;;;9.00;99.90;;;;;;6206961;23;20694;-96
2022/10/01 06:55:50;;;;;;;7.33;6.73;;;9.20;99.90;;;;;;6203852;23;20575;-92
2022/10/01 06:58:19;;;;;;;9.23;8.43;;;9.10;99.90;;;;;;6210209;23;20513;-93
2022/10/01 07:00:57;;;;;;;19.20;17.77;;;9.20;99.90;;;;;;6208930;23;20614;-94
2022/10/01 07:03:26;;;;;;;10.60;9.70;;;9.20;99.90;;;;;;6196191;23;20614;-94
2022/10/01 07:06:13;;;;;;;5.97;5.50;;;9.30;99.90;;;;;;6197442;23;20607;-94
2022/10/01 07:09:05;;;;;;;7.60;6.93;;;9.30;99.90;;;;;;6203887;23;20588;-95
2022/10/01 07:11:34;;;;;;;6.20;5.70;;;9.30;99.90;;;;;;6205628;23;20623;-96
2022/10/01 07:17:32;;;;;;;6.37;5.87;;;9.60;99.90;;;;;;6209546;23;20479;-96
2022/10/01 07:27:11;;;;;;;5.83;4.90;;;9.70;99.90;;;;;;6207420;23;20655;-96
2022/10/01 07:29:50;;;;;;;7.93;7.23;;;9.80;99.90;;;;;;6210759;23;20658;-95
2022/10/01 07:32:41;;;;;;;7.47;6.87;;;9.80;99.90;;;;;;6209416;23;20604;-94
2022/10/01 07:44:05;;;;;;;7.57;6.87;;;9.60;99.90;;;;;;6212224;23;20472;-96
2022/10/01 07:57:43;;;;;;;12.03;6.57;;;9.80;99.90;;;;;;6239777;22;20622;-96
2022/10/01 08:00:11;;;;;;;8.43;7.47;;;9.80;99.90;;;;;;6240571;23;20579;-95
2022/10/01 08:02:38;;;;;;;7.97;7.17;;;9.70;99.90;;;;;;6239328;23;20607;-96
2022/10/01 08:08:29;;;;;;;8.03;7.37;;;9.70;99.90;;;;;;6238420;23;20518;-95
2022/10/01 08:10:56;;;;;;;7.63;7.03;;;9.70;99.90;;;;;;6239727;23;20585;-96
2022/10/01 08:13:29;;;;;;;11.60;10.50;;;9.80;99.90;;;;;;6216383;23;20635;-96
2022/10/01 08:34:23;;;;;;;8.60;7.40;;;10.30;99.90;;;;;;6058030;23;20571;-92
2022/10/01 08:36:53;;;;;;;7.00;5.20;;;10.40;99.90;;;;;;6043612;23;20663;-96
2022/10/01 08:39:20;;;;;;;16.10;14.70;;;10.40;99.90;;;;;;6197820;23;21072;-96
2022/10/01 08:42:00;;;;;;;12.53;11.33;;;10.30;99.90;;;;;;6219620;23;20677;-95
2022/10/01 08:44:33;;;;;;;8.53;7.80;;;10.50;99.90;;;;;;6225353;23;21146;-95
2022/10/01 08:47:09;;;;;;;3.80;3.50;;;10.60;99.90;;;;;;6227546;23;20672;-96
2022/10/01 08:49:45;;;;;;;3.53;2.73;;;10.50;99.90;;;;;;6221788;23;20716;-96
2022/10/01 08:52:22;;;;;;;2.10;1.90;;;10.70;99.90;;;;;;6232409;23;20581;-95
2022/10/01 08:54:56;;;;;;;2.50;2.07;;;10.70;99.90;;;;;;6225523;23;20539;-96
2022/10/01 09:00:15;;;;;;;4.20;1.57;;;10.70;99.90;;;;;;6222921;23;20571;-94
2022/10/01 09:15:04;;;;;;;1.70;1.40;;;10.60;99.90;;;;;;6222919;23;20577;-95
2022/10/01 09:17:45;;;;;;;1.50;1.40;;;10.80;99.90;;;;;;6229161;23;20610;-95
2022/10/01 09:20:23;;;;;;;3.40;1.63;;;10.80;99.90;;;;;;6229078;23;20629;-94
2022/10/01 09:23:02;;;;;;;1.40;1.30;;;10.80;99.90;;;;;;6224262;23;20655;-95
2022/10/01 09:25:30;;;;;;;1.90;1.40;;;10.90;99.90;;;;;;6221610;23;20605;-95
2022/10/01 09:28:02;;;;;;;2.00;1.90;;;10.90;99.90;;;;;;6227222;23;20709;-94
2022/10/01 09:30:33;;;;;;;2.93;2.73;;;10.80;99.90;;;;;;6218039;23;21067;-96
2022/10/01 09:33:04;;;;;;;1.90;1.80;;;11.00;99.90;;;;;;6216043;23;20582;-95
2022/10/01 09:35:39;;;;;;;2.30;1.30;;;11.10;99.90;;;;;;6218388;23;20599;-96
2022/10/01 09:38:15;;;;;;;1.80;1.70;;;11.00;99.90;;;;;;6215830;23;20712;-95
2022/10/01 09:40:49;;;;;;;6.20;4.77;;;10.70;99.90;;;;;;6215020;23;20588;-96
2022/10/01 09:43:18;;;;;;;4.90;4.57;;;11.10;99.90;;;;;;6220346;23;20673;-96
2022/10/01 09:46:03;;;;;;;2.50;1.80;;;11.10;99.90;;;;;;6226475;23;20605;-95
2022/10/01 09:51:22;;;;;;;2.33;2.13;;;11.00;99.90;;;;;;6225944;23;20601;-96
2022/10/01 09:54:36;;;;;;;2.20;2.07;;;11.10;99.90;;;;;;6225750;23;20591;-95
2022/10/01 09:57:42;;;;;;;2.30;1.90;;;11.10;99.90;;;;;;6220335;23;20698;-96
2022/10/01 10:00:16;;;;;;;1.70;1.60;;;11.20;99.90;;;;;;6218874;23;20643;-95
2022/10/01 10:14:24;;;;;;;1.73;1.60;;;11.40;99.90;;;;;;6224696;22;20623;-94
2022/10/01 10:16:51;;;;;;;1.50;1.40;;;11.30;99.90;;;;;;6209099;23;20643;-96
2022/10/01 10:19:34;;;;;;;1.40;1.30;;;11.30;99.90;;;;;;6207331;23;20610;-94
2022/10/01 10:24:40;;;;;;;1.60;1.50;;;11.30;99.90;;;;;;6169714;23;20677;-96
2022/10/01 10:27:26;;;;;;;1.60;1.50;;;11.30;99.90;;;;;;6169900;23;20589;-94
2022/10/01 10:30:07;;;;;;;1.03;1.03;;;11.40;99.90;;;;;;6170291;23;20564;-96
2022/10/01 10:40:24;;;;;;;1.37;1.20;;;11.40;99.90;;;;;;6207605;22;20589;-95
2022/10/01 10:42:56;;;;;;;1.70;0.90;;;11.50;99.90;;;;;;6234254;23;20644;-95
2022/10/01 10:45:32;;;;;;;1.83;1.10;;;11.50;99.90;;;;;;6241016;23;20641;-94
2022/10/01 10:48:04;;;;;;;0.90;0.80;;;11.50;99.90;;;;;;6240559;23;20594;-95
2022/10/01 10:50:37;;;;;;;1.10;1.00;;;11.50;99.90;;;;;;6237182;23;20595;-93
2022/10/01 10:53:26;;;;;;;1.17;1.17;;;11.60;99.90;;;;;;6238406;22;20605;-94
2022/10/01 10:55:56;;;;;;;0.93;0.93;;;11.60;99.90;;;;;;6210870;23;20588;-93
2022/10/01 10:58:29;;;;;;;0.90;0.87;;;11.70;99.90;;;;;;6234143;23;20614;-96
2022/10/01 11:01:16;;;;;;;1.33;1.17;;;11.80;99.90;;;;;;6229928;23;20598;-94
2022/10/01 11:03:48;;;;;;;1.90;0.87;;;11.80;99.90;;;;;;6217944;23;20613;-93
2022/10/01 11:06:18;;;;;;;1.10;1.10;;;11.80;99.90;;;;;;6217647;23;20911;-93
2022/10/01 11:08:56;;;;;;;1.33;1.23;;;11.90;99.90;;;;;;6220558;23;20701;-94
2022/10/01 11:11:42;;;;;;;1.63;0.90;;;11.90;99.90;;;;;;6222275;23;20575;-95
2022/10/01 11:27:40;;;;;;;1.00;0.90;;;12.40;99.90;;;;;;6205812;23;20590;-95
2022/10/01 11:30:17;;;;;;;1.07;0.90;;;12.30;99.90;;;;;;6179419;23;20655;-96
2022/10/01 11:32:51;;;;;;;1.60;1.23;;;12.30;99.90;;;;;;6204707;23;20615;-95
2022/10/01 11:35:55;;;;;;;1.27;1.10;;;12.20;99.90;;;;;;6209099;23;20608;-96
2022/10/01 11:38:48;;;;;;;1.93;1.20;;;12.20;99.90;;;;;;6211506;23;20619;-96
2022/10/01 11:41:37;;;;;;;1.00;0.90;;;12.10;99.90;;;;;;6206891;23;20614;-96
2022/10/01 11:44:24;;;;;;;1.67;1.30;;;12.10;99.90;;;;;;6200648;23;20614;-96
2022/10/01 11:46:57;;;;;;;1.93;1.30;;;12.10;99.90;;;;;;6197445;23;20642;-95
2022/10/01 11:49:52;;;;;;;1.93;1.10;;;12.20;99.90;;;;;;6171367;23;20694;-96
2022/10/01 11:52:32;;;;;;;1.20;1.10;;;12.30;99.90;;;;;;6185280;23;20598;-94
2022/10/01 12:01:04;;;;;;;1.23;1.13;;;12.30;99.90;;;;;;6205722;23;20503;-94
2022/10/01 12:03:39;;;;;;;1.50;0.90;;;12.40;99.90;;;;;;6171906;23;21080;-95
2022/10/01 12:06:13;;;;;;;1.63;1.13;;;12.40;99.90;;;;;;6186122;23;20645;-94
2022/10/01 12:08:50;;;;;;;1.27;0.87;;;12.50;99.90;;;;;;6187382;23;20607;-94
2022/10/01 12:11:23;;;;;;;1.90;1.10;;;12.50;99.90;;;;;;6192438;23;20590;-94
2022/10/01 12:13:59;;;;;;;1.23;0.80;;;12.60;99.90;;;;;;6161386;23;21193;-94
2022/10/01 12:16:41;;;;;;;1.47;1.37;;;12.60;99.90;;;;;;6159622;23;20616;-94
2022/10/01 12:19:16;;;;;;;0.73;0.70;;;12.70;99.90;;;;;;6159605;23;20649;-95
2022/10/01 12:21:49;;;;;;;2.10;0.97;;;12.30;99.90;;;;;;6185896;23;20559;-93
2022/10/01 12:24:20;;;;;;;1.03;0.80;;;12.80;99.90;;;;;;6187394;23;20605;-95
2022/10/01 12:27:02;;;;;;;1.80;0.80;;;12.80;99.90;;;;;;6191373;23;20636;-94
2022/10/01 12:29:48;;;;;;;2.13;0.80;;;12.90;99.90;;;;;;6192973;23;20938;-96
2022/10/01 12:32:40;;;;;;;1.27;0.90;;;13.00;99.90;;;;;;6192554;23;20544;-95
2022/10/01 12:35:28;;;;;;;2.60;1.40;;;13.00;99.90;;;;;;6196911;23;20626;-93
2022/10/01 12:38:11;;;;;;;1.10;1.00;;;12.70;99.90;;;;;;6187538;23;21175;-96
2022/10/01 12:40:46;;;;;;;0.50;0.50;;;13.20;99.90;;;;;;6185491;23;20602;-94
2022/10/01 12:43:32;;;;;;;0.90;0.70;;;13.30;99.90;;;;;;6188328;23;20714;-95
2022/10/01 12:46:27;;;;;;;0.50;0.50;;;13.30;99.90;;;;;;6187241;23;20643;-95
2022/10/01 12:49:06;;;;;;;1.00;0.80;;;13.10;99.90;;;;;;6187812;23;20630;-96
2022/10/01 12:51:40;;;;;;;0.80;0.60;;;13.40;99.90;;;;;;6187354;23;20590;-95
2022/10/01 12:54:40;;;;;;;1.07;1.00;;;13.30;99.90;;;;;;6185831;23;20634;-94
2022/10/01 12:57:21;;;;;;;0.80;0.80;;;13.40;99.90;;;;;;6184447;23;21155;-95
2022/10/01 13:00:02;;;;;;;0.53;0.40;;;13.40;99.90;;;;;;6186799;23;21354;-95
2022/10/01 13:03:13;;;;;;;1.80;0.60;;;13.50;99.90;;;;;;6183966;23;20670;-93
2022/10/01 13:05:52;;;;;;;2.27;2.07;;;13.30;99.90;;;;;;6187523;23;20626;-94
2022/10/01 13:08:34;;;;;;;0.70;0.50;;;13.60;99.90;;;;;;6186305;23;20552;-93
2022/10/01 13:11:09;;;;;;;0.70;0.70;;;13.70;99.90;;;;;;6190627;23;21109;-94
2022/10/01 13:13:37;;;;;;;1.20;0.53;;;13.90;99.90;;;;;;6205266;23;20592;-94
2022/10/01 13:16:11;;;;;;;0.97;0.87;;;14.00;99.90;;;;;;6193316;23;20622;-95
2022/10/01 13:18:49;;;;;;;1.07;0.60;;;14.10;99.90;;;;;;6192463;23;20590;-94
2022/10/01 13:21:25;;;;;;;0.93;0.90;;;14.20;99.90;;;;;;6189095;23;20528;-94
2022/10/01 13:23:58;;;;;;;0.60;0.60;;;14.30;99.90;;;;;;6189055;23;21129;-96
2022/10/01 13:26:31;;;;;;;0.50;0.47;;;14.30;99.90;;;;;;6191573;23;20691;-94
2022/10/01 13:29:19;;;;;;;0.60;0.50;;;14.50;99.90;;;;;;6165630;23;20612;-93
2022/10/01 13:31:56;;;;;;;0.77;0.77;;;14.50;99.90;;;;;;6159844;23;20619;-94
2022/10/01 13:34:34;;;;;;;0.83;0.70;;;14.80;99.90;;;;;;6158064;23;20623;-94
2022/10/01 13:37:12;;;;;;;0.90;0.70;;;15.20;99.90;;;;;;6156604;23;20691;-95
2022/10/01 13:39:42;;;;;;;0.67;0.60;;;16.00;99.90;;;;;;6157164;23;20522;-94
2022/10/01 13:42:18;;;;;;;0.70;0.50;;;16.40;99.90;;;;;;6159843;23;20643;-94
2022/10/01 13:44:53;;;;;;;1.37;0.53;;;16.20;99.90;;;;;;6155978;23;20728;-94
2022/10/01 13:47:21;;;;;;;0.70;0.57;;;16.20;99.90;;;;;;6155375;23;21257;-93
2022/10/01 13:49:56;;;;;;;0.90;0.57;;;16.30;99.90;;;;;;6130351;23;20650;-96
2022/10/01 13:52:25;;;;;;;0.70;0.70;;;16.40;99.90;;;;;;6159595;23;20659;-96
2022/10/01 13:54:54;;;;;;;0.63;0.57;;;16.40;99.90;;;;;;6155302;23;20580;-94
2022/10/01 13:57:34;;;;;;;0.60;0.60;;;16.20;99.90;;;;;;6155447;23;20583;-94
2022/10/01 14:00:19;;;;;;;0.70;0.50;;;15.90;99.90;;;;;;6154048;23;20600;-93
2022/10/01 14:03:00;;;;;;;0.77;0.70;;;15.70;99.90;;;;;;6151796;23;20568;-93
2022/10/01 14:05:34;;;;;;;0.77;0.63;;;15.80;99.90;;;;;;6152824;23;20643;-93
2022/10/01 14:08:16;;;;;;;1.00;0.70;;;15.90;99.90;;;;;;6154005;23;20943;-94
2022/10/01 14:16:37;;;;;;;0.83;0.60;;;15.70;99.90;;;;;;6157160;23;20685;-94
2022/10/01 14:19:05;;;;;;;0.70;0.70;;;15.80;99.90;;;;;;6155691;23;20618;-93
2022/10/01 14:21:43;;;;;;;0.87;0.80;;;15.90;99.90;;;;;;6155737;23;20548;-94
2022/10/01 14:24:22;;;;;;;1.53;0.70;;;15.90;99.90;;;;;;6156558;23;20595;-94
2022/10/01 14:26:54;;;;;;;1.70;1.10;;;16.00;99.90;;;;;;6161417;23;20708;-93
2022/10/01 14:29:40;;;;;;;2.10;0.83;;;15.90;99.90;;;;;;6186977;23;20606;-93
2022/10/01 14:32:21;;;;;;;0.60;0.60;;;15.70;99.90;;;;;;6165995;23;20583;-93
2022/10/01 14:35:11;;;;;;;1.80;0.70;;;15.80;99.90;;;;;;6185173;23;21186;-92
2022/10/01 14:37:39;;;;;;;1.27;0.67;;;15.70;99.90;;;;;;6157071;23;20600;-95
2022/10/01 14:40:16;;;;;;;1.00;0.63;;;15.50;99.90;;;;;;6184528;23;21500;-95
2022/10/01 14:42:56;;;;;;;1.10;0.60;;;15.50;99.90;;;;;;6186887;23;20555;-95
2022/10/01 14:45:22;;;;;;;0.60;0.60;;;15.50;99.90;;;;;;6189892;23;20633;-95
2022/10/01 14:48:00;;;;;;;1.57;0.60;;;15.50;99.90;;;;;;6187793;23;20602;-94
2022/10/01 14:50:32;;;;;;;0.80;0.70;;;15.60;99.90;;;;;;6188248;23;20973;-96
2022/10/01 14:52:59;;;;;;;1.00;0.83;;;15.70;99.90;;;;;;6194410;23;20660;-95
2022/10/01 14:55:30;;;;;;;1.30;0.70;;;15.80;99.90;;;;;;6195856;23;20615;-95
2022/10/01 14:57:59;;;;;;;6.03;0.90;;;15.70;99.90;;;;;;6186933;23;20595;-94
2022/10/01 15:00:34;;;;;;;1.23;0.70;;;15.70;99.90;;;;;;6185901;23;21164;-96
2022/10/01 15:03:12;;;;;;;0.53;0.50;;;15.90;99.90;;;;;;6187494;23;20658;-96
2022/10/01 15:05:39;;;;;;;0.93;0.70;;;16.00;99.90;;;;;;6191736;23;20630;-94
2022/10/01 15:08:12;;;;;;;0.80;0.70;;;16.00;99.90;;;;;;6194894;23;20636;-95
2022/10/01 15:10:46;;;;;;;1.83;0.60;;;15.90;99.90;;;;;;6194003;23;20812;-95
2022/10/01 15:13:30;;;;;;;1.23;0.70;;;15.70;99.90;;;;;;6204965;23;20583;-95
2022/10/01 15:16:02;;;;;;;0.77;0.70;;;15.80;99.90;;;;;;6175463;23;21188;-96
2022/10/01 15:18:31;;;;;;;1.50;0.90;;;15.70;99.90;;;;;;6190138;23;20684;-96
2022/10/01 15:21:07;;;;;;;0.90;0.90;;;15.70;99.90;;;;;;6189432;23;20587;-96
2022/10/01 15:23:36;;;;;;;0.83;0.60;;;15.70;99.90;;;;;;6190012;23;20674;-96
2022/10/01 15:26:12;;;;;;;0.60;0.60;;;15.70;99.90;;;;;;6191246;23;20629;-95
2022/10/01 15:28:39;;;;;;;1.63;0.90;;;15.40;99.90;;;;;;6193001;23;20710;-96